Grande Portogallo — IBZW — position and weather

sailwx.info

Track history (hours):
 
Tides and Currents Weather Stations Pressure Air Temp Water Temp Dewpoint Dewpoint Depression Visibility Wind Speed Wind Dir Waves Ship Positions

Grande Portogallo

Last reported at 2017-Jul-20 18:29 UTC. Time now 2017-Jul-22 16:33 UTC.
Position N 39°22' E 001°07'.

Length 176 m; draft 8.3 m.

Type: Cargo ship. MMSI: 247065500.

Date/timePositionNaut miles runAvg speedWind from/ knotsBaromVisibWave heightAir tempDewpointWater temp
2017-Jul-20 18:29N 39°22' E 001°07'816.1
2017-Jul-20 18:00N 39°21' E 001°16'1016.1
2017-Jul-20 17:23N 39°18' E 001°29'716.1
2017-Jul-20 16:55N 39°16' E 001°38'716.1
2017-Jul-20 16:30N 39°14' E 001°47'815.9
2017-Jul-20 16:00N 39°13' E 001°57'815.5
2017-Jul-20 15:30N 39°11' E 002°06'815.6
2017-Jul-20 15:00N 39°09' E 002°16'1615.7
2017-Jul-20 14:00N 39°06' E 002°36'816.0
2017-Jul-20 13:30N 39°04' E 002°46'816.0
2017-Jul-20 13:00N 39°02' E 002°56'816.0
2017-Jul-20 12:30N 39°01' E 003°06'816.0
2017-Jul-20 12:00N 39°01' E 003°16'816.0
2017-Jul-20 11:30N 39°01' E 003°27'816.0
2017-Jul-20 11:00N 39°00' E 003°37'3915.9
2017-Jul-20 08:34N 38°58' E 004°27'116.0
2017-Jul-20 08:31N 38°58' E 004°28'816.2
2017-Jul-20 08:00N 38°58' E 004°38'6816.5
2017-Jul-20 03:51N 38°53' E 006°06'616.7
2017-Jul-20 03:30N 38°53' E 006°14'3916.6
2017-Jul-20 01:10N 38°52' E 007°04'316.2
2017-Jul-20 01:00N 38°52' E 007°07'1916.1
2017-Jul-19 23:51N 38°51' E 007°31'716.5
2017-Jul-19 23:26N 38°50' E 007°39'1116.6
2017-Jul-19 22:46N 38°50' E 007°54'516.4
2017-Jul-19 22:30N 38°49' E 007°59'816.3
2017-Jul-19 22:00N 38°49' E 008°10'2316.9
2017-Jul-19 20:37N 38°48' E 008°40'317.1
2017-Jul-19 20:28N 38°48' E 008°43'817.0
2017-Jul-19 20:00N 38°47' E 008°53'816.7
2017-Jul-19 19:30N 38°50' E 009°03'917.2
2017-Jul-19 19:00N 38°53' E 009°14'917.2
2017-Jul-19 18:30N 38°55' E 009°24'916.8
2017-Jul-19 17:59N 38°58' E 009°35'1116.8
2017-Jul-19 17:18N 39°02' E 009°49'816.9
2017-Jul-19 16:49N 39°06' E 009°58'516.8
2017-Jul-19 16:30N 39°08' E 010°05'816.5
2017-Jul-19 16:00N 39°11' E 010°14'9817.3
2017-Jul-19 10:22N 39°48' E 012°12'6118.4
2017-Jul-19 07:03N 40°09' E 013°26'418.3
2017-Jul-19 06:50N 40°11' E 013°31'1518.4
2017-Jul-19 06:02N 40°17' E 013°48'118.5
2017-Jul-19 06:00N 40°17' E 013°49'1318.4
2017-Jul-19 05:19N 40°22' E 014°04'2218.2
2017-Jul-19 04:08N 40°31' E 014°30'618.0
2017-Jul-19 03:48N 40°34' E 014°37'118 4.6
2017-Jul-18 02:10N 38°44' E 015°30'316.8
2017-Jul-18 02:00N 38°41' E 015°31'816.7
2017-Jul-18 01:30N 38°33' E 015°36'816.5
2017-Jul-18 01:00N 38°26' E 015°40'816.4
2017-Jul-18 00:30N 38°18' E 015°44'714.9
2017-Jul-18 00:00N 38°13' E 015°37'917.8
2017-Jul-17 23:30N 38°04' E 015°36'816.1
2017-Jul-17 23:00N 37°56' E 015°37'816.6
2017-Jul-17 22:30N 37°52' E 015°47'41214.2
2017-Jul-16 17:25N 37°40' E 024°28'24614.4
2017-Jul-16 00:19N 40°32' E 028°15'  
2017-Jul-13 04:05N 40°30' E 026°59'117.5
2017-Jul-13 04:00N 40°29' E 026°58'917.6
2017-Jul-13 03:29N 40°26' E 026°46'912.3
2017-Jul-13 02:45N 40°20' E 026°38'4013.5
2017-Jul-12 23:48N 39°55' E 025°57'516.6
2017-Jul-12 23:30N 39°51' E 025°53'917.4
2017-Jul-12 23:00N 39°44' E 025°47'16218.0
2017-Jul-12 14:00N 37°20' E 024°12'917.5
2017-Jul-12 13:30N 37°13' E 024°04'917.8
2017-Jul-12 13:00N 37°06' E 023°57'1718.3
2017-Jul-12 12:05N 36°53' E 023°45'118.6
2017-Jul-12 12:00N 36°52' E 023°44'918.3
2017-Jul-12 11:30N 36°44' E 023°37'12516.4
2017-Jul-12 03:54N 36°38' E 021°01'818.2
2017-Jul-12 03:29N 36°41' E 020°52'918.2
2017-Jul-12 03:00N 36°43' E 020°42'1218.1
2017-Jul-12 02:20N 36°47' E 020°27'618.2
2017-Jul-12 02:00N 36°48' E 020°20'918.2
2017-Jul-12 01:30N 36°51' E 020°09'4318.3
2017-Jul-11 23:10N 37°03' E 019°18'16418.4
2017-Jul-11 14:14N 37°48' E 015°59'418.0
2017-Jul-11 14:00N 37°50' E 015°54'917.7
2017-Jul-11 13:30N 37°52' E 015°43'815.9
2017-Jul-11 12:59N 37°57' E 015°34'817.7
2017-Jul-11 12:30N 38°05' E 015°34'917.8
2017-Jul-11 12:00N 38°14' E 015°36'612.9
2017-Jul-11 11:30N 38°20' E 015°40'918.0
2017-Jul-11 11:00N 38°28' E 015°36'918.5
2017-Jul-11 10:30N 38°37' E 015°32'918.5
2017-Jul-11 10:00N 38°45' E 015°27'918.4
2017-Jul-11 09:30N 38°54' E 015°22'1618.5
2017-Jul-11 08:39N 39°08' E 015°15'418.4
2017-Jul-11 08:26N 39°12' E 015°13'  
Track history (hours):
 
Tides and Currents Weather Stations Pressure Air Temp Water Temp Dewpoint Dewpoint Depression Visibility Wind Speed Wind Dir Waves Ship Positions

Grande Portogallo

Last reported at 2017-Jul-20 18:29 UTC. Time now 2017-Jul-22 16:33 UTC.
Position N 39°22' E 001°07'.

Length 176 m; draft 8.3 m.

Type: Cargo ship. MMSI: 247065500.

Date/timePositionNaut miles runAvg speedWind from/ knotsBaromVisibWave heightAir tempDewpointWater temp
2017-Jul-20 18:29N 39°22' E 001°07'816.1
2017-Jul-20 18:00N 39°21' E 001°16'1016.1
2017-Jul-20 17:23N 39°18' E 001°29'716.1
2017-Jul-20 16:55N 39°16' E 001°38'716.1
2017-Jul-20 16:30N 39°14' E 001°47'815.9
2017-Jul-20 16:00N 39°13' E 001°57'815.5
2017-Jul-20 15:30N 39°11' E 002°06'815.6
2017-Jul-20 15:00N 39°09' E 002°16'1615.7
2017-Jul-20 14:00N 39°06' E 002°36'816.0
2017-Jul-20 13:30N 39°04' E 002°46'816.0
2017-Jul-20 13:00N 39°02' E 002°56'816.0
2017-Jul-20 12:30N 39°01' E 003°06'816.0
2017-Jul-20 12:00N 39°01' E 003°16'816.0
2017-Jul-20 11:30N 39°01' E 003°27'816.0
2017-Jul-20 11:00N 39°00' E 003°37'3915.9
2017-Jul-20 08:34N 38°58' E 004°27'116.0
2017-Jul-20 08:31N 38°58' E 004°28'816.2
2017-Jul-20 08:00N 38°58' E 004°38'6816.5
2017-Jul-20 03:51N 38°53' E 006°06'616.7
2017-Jul-20 03:30N 38°53' E 006°14'3916.6
2017-Jul-20 01:10N 38°52' E 007°04'316.2
2017-Jul-20 01:00N 38°52' E 007°07'1916.1
2017-Jul-19 23:51N 38°51' E 007°31'716.5
2017-Jul-19 23:26N 38°50' E 007°39'1116.6
2017-Jul-19 22:46N 38°50' E 007°54'516.4
2017-Jul-19 22:30N 38°49' E 007°59'816.3
2017-Jul-19 22:00N 38°49' E 008°10'2316.9
2017-Jul-19 20:37N 38°48' E 008°40'317.1
2017-Jul-19 20:28N 38°48' E 008°43'817.0
2017-Jul-19 20:00N 38°47' E 008°53'816.7
2017-Jul-19 19:30N 38°50' E 009°03'917.2
2017-Jul-19 19:00N 38°53' E 009°14'917.2
2017-Jul-19 18:30N 38°55' E 009°24'916.8
2017-Jul-19 17:59N 38°58' E 009°35'1116.8
2017-Jul-19 17:18N 39°02' E 009°49'816.9
2017-Jul-19 16:49N 39°06' E 009°58'516.8
2017-Jul-19 16:30N 39°08' E 010°05'816.5
2017-Jul-19 16:00N 39°11' E 010°14'9817.3
2017-Jul-19 10:22N 39°48' E 012°12'6118.4
2017-Jul-19 07:03N 40°09' E 013°26'418.3
2017-Jul-19 06:50N 40°11' E 013°31'1518.4
2017-Jul-19 06:02N 40°17' E 013°48'118.5
2017-Jul-19 06:00N 40°17' E 013°49'1318.4
2017-Jul-19 05:19N 40°22' E 014°04'2218.2
2017-Jul-19 04:08N 40°31' E 014°30'618.0
2017-Jul-19 03:48N 40°34' E 014°37'118 4.6
2017-Jul-18 02:10N 38°44' E 015°30'316.8
2017-Jul-18 02:00N 38°41' E 015°31'816.7
2017-Jul-18 01:30N 38°33' E 015°36'816.5
2017-Jul-18 01:00N 38°26' E 015°40'816.4
2017-Jul-18 00:30N 38°18' E 015°44'714.9
2017-Jul-18 00:00N 38°13' E 015°37'917.8
2017-Jul-17 23:30N 38°04' E 015°36'816.1
2017-Jul-17 23:00N 37°56' E 015°37'816.6
2017-Jul-17 22:30N 37°52' E 015°47'41214.2
2017-Jul-16 17:25N 37°40' E 024°28'24614.4
2017-Jul-16 00:19N 40°32' E 028°15'  
2017-Jul-13 04:05N 40°30' E 026°59'117.5
2017-Jul-13 04:00N 40°29' E 026°58'917.6
2017-Jul-13 03:29N 40°26' E 026°46'912.3
2017-Jul-13 02:45N 40°20' E 026°38'4013.5
2017-Jul-12 23:48N 39°55' E 025°57'516.6
2017-Jul-12 23:30N 39°51' E 025°53'917.4
2017-Jul-12 23:00N 39°44' E 025°47'16218.0
2017-Jul-12 14:00N 37°20' E 024°12'917.5
2017-Jul-12 13:30N 37°13' E 024°04'917.8
2017-Jul-12 13:00N 37°06' E 023°57'1718.3
2017-Jul-12 12:05N 36°53' E 023°45'118.6
2017-Jul-12 12:00N 36°52' E 023°44'918.3
2017-Jul-12 11:30N 36°44' E 023°37'12516.4
2017-Jul-12 03:54N 36°38' E 021°01'818.2
2017-Jul-12 03:29N 36°41' E 020°52'918.2
2017-Jul-12 03:00N 36°43' E 020°42'1218.1
2017-Jul-12 02:20N 36°47' E 020°27'618.2
2017-Jul-12 02:00N 36°48' E 020°20'918.2
2017-Jul-12 01:30N 36°51' E 020°09'4318.3
2017-Jul-11 23:10N 37°03' E 019°18'16418.4
2017-Jul-11 14:14N 37°48' E 015°59'418.0
2017-Jul-11 14:00N 37°50' E 015°54'917.7
2017-Jul-11 13:30N 37°52' E 015°43'815.9
2017-Jul-11 12:59N 37°57' E 015°34'817.7
2017-Jul-11 12:30N 38°05' E 015°34'917.8
2017-Jul-11 12:00N 38°14' E 015°36'612.9
2017-Jul-11 11:30N 38°20' E 015°40'918.0
2017-Jul-11 11:00N 38°28' E 015°36'918.5
2017-Jul-11 10:30N 38°37' E 015°32'918.5
2017-Jul-11 10:00N 38°45' E 015°27'918.4
2017-Jul-11 09:30N 38°54' E 015°22'1618.5
2017-Jul-11 08:39N 39°08' E 015°15'418.4
2017-Jul-11 08:26N 39°12' E 015°13'  

Dump ship's entire track history